sensor_id;sensor_type;location;lat;lon;timestamp;pressure;altitude;pressure_sealevel;temperature;humidity
11223;BME280;5668;52.012;8.724;2023-04-10T00:01:34;100949.47;;;9.39;67.77
11223;BME280;5668;52.012;8.724;2023-04-10T00:04:01;100948.69;;;9.37;67.95
11223;BME280;5668;52.012;8.724;2023-04-10T00:06:29;100935.72;;;9.37;67.93
11223;BME280;5668;52.012;8.724;2023-04-10T00:08:58;100929.03;;;9.33;67.63
11223;BME280;5668;52.012;8.724;2023-04-10T00:11:26;100932.72;;;9.29;67.65
11223;BME280;5668;52.012;8.724;2023-04-10T00:13:54;100932.03;;;9.25;67.61
11223;BME280;5668;52.012;8.724;2023-04-10T00:16:21;100933.22;;;9.20;67.85
11223;BME280;5668;52.012;8.724;2023-04-10T00:18:48;100928.88;;;9.20;68.05
11223;BME280;5668;52.012;8.724;2023-04-10T00:21:15;100921.00;;;9.22;68.48
11223;BME280;5668;52.012;8.724;2023-04-10T00:23:43;100922.75;;;9.21;68.11
11223;BME280;5668;52.012;8.724;2023-04-10T00:26:11;100928.78;;;9.22;68.00
11223;BME280;5668;52.012;8.724;2023-04-10T00:28:39;100917.56;;;9.21;68.48
11223;BME280;5668;52.012;8.724;2023-04-10T00:31:06;100926.34;;;9.19;68.55
11223;BME280;5668;52.012;8.724;2023-04-10T00:33:33;100909.94;;;9.18;67.99
11223;BME280;5668;52.012;8.724;2023-04-10T00:36:00;100920.44;;;9.17;67.90
11223;BME280;5668;52.012;8.724;2023-04-10T00:38:28;100907.69;;;9.12;68.75
11223;BME280;5668;52.012;8.724;2023-04-10T00:40:55;100905.94;;;9.13;68.65
11223;BME280;5668;52.012;8.724;2023-04-10T00:43:24;100897.41;;;9.11;68.15
11223;BME280;5668;52.012;8.724;2023-04-10T00:45:51;100902.59;;;9.11;68.01
11223;BME280;5668;52.012;8.724;2023-04-10T00:48:18;100893.25;;;9.08;67.98
11223;BME280;5668;52.012;8.724;2023-04-10T00:50:46;100891.72;;;9.04;68.03
11223;BME280;5668;52.012;8.724;2023-04-10T00:53:13;100899.56;;;9.03;68.27
11223;BME280;5668;52.012;8.724;2023-04-10T00:55:40;100898.91;;;8.99;68.20
11223;BME280;5668;52.012;8.724;2023-04-10T00:58:08;100898.22;;;8.96;68.12
11223;BME280;5668;52.012;8.724;2023-04-10T01:00:40;100897.38;;;8.95;68.40
11223;BME280;5668;52.012;8.724;2023-04-10T01:03:08;100896.75;;;8.91;68.55
11223;BME280;5668;52.012;8.724;2023-04-10T01:05:42;100895.91;;;8.91;68.71
11223;BME280;5668;52.012;8.724;2023-04-10T01:08:15;100898.63;;;8.88;69.42
11223;BME280;5668;52.012;8.724;2023-04-10T01:10:49;100897.06;;;8.85;69.57
11223;BME280;5668;52.012;8.724;2023-04-10T01:13:22;100895.31;;;8.86;69.56
11223;BME280;5668;52.012;8.724;2023-04-10T01:15:57;100890.22;;;8.84;68.77
11223;BME280;5668;52.012;8.724;2023-04-10T01:18:33;100893.72;;;8.83;69.11
11223;BME280;5668;52.012;8.724;2023-04-10T01:21:06;100892.03;;;8.82;69.24
11223;BME280;5668;52.012;8.724;2023-04-10T01:24:06;100881.84;;;8.79;68.76
11223;BME280;5668;52.012;8.724;2023-04-10T01:26:48;100885.50;;;8.75;68.85
11223;BME280;5668;52.012;8.724;2023-04-10T01:29:20;100889.09;;;8.73;69.12
11223;BME280;5668;52.012;8.724;2023-04-10T01:31:52;100884.16;;;8.68;69.27
11223;BME280;5668;52.012;8.724;2023-04-10T01:34:23;100886.00;;;8.66;69.42
11223;BME280;5668;52.012;8.724;2023-04-10T01:36:54;100884.41;;;8.64;69.16
11223;BME280;5668;52.012;8.724;2023-04-10T01:39:22;100890.50;;;8.63;70.05
11223;BME280;5668;52.012;8.724;2023-04-10T01:41:51;100888.84;;;8.62;69.65
11223;BME280;5668;52.012;8.724;2023-04-10T01:44:24;100891.34;;;8.63;70.73
11223;BME280;5668;52.012;8.724;2023-04-10T01:46:54;100892.34;;;8.61;69.73
11223;BME280;5668;52.012;8.724;2023-04-10T01:49:24;100891.50;;;8.60;70.15
11223;BME280;5668;52.012;8.724;2023-04-10T01:51:53;100897.66;;;8.58;70.74
11223;BME280;5668;52.012;8.724;2023-04-10T01:54:24;100892.47;;;8.58;70.45
11223;BME280;5668;52.012;8.724;2023-04-10T01:56:52;100884.81;;;8.56;70.78
11223;BME280;5668;52.012;8.724;2023-04-10T01:59:21;100883.97;;;8.56;70.92
11223;BME280;5668;52.012;8.724;2023-04-10T02:01:48;100876.94;;;8.58;70.92
11223;BME280;5668;52.012;8.724;2023-04-10T02:04:21;100877.78;;;8.58;70.81
11223;BME280;5668;52.012;8.724;2023-04-10T02:06:54;100876.94;;;8.58;71.55
11223;BME280;5668;52.012;8.724;2023-04-10T02:09:30;100870.13;;;8.57;70.59
11223;BME280;5668;52.012;8.724;2023-04-10T02:12:04;100866.75;;;8.54;71.63
11223;BME280;5668;52.012;8.724;2023-04-10T02:14:37;100866.75;;;8.54;71.53
11223;BME280;5668;52.012;8.724;2023-04-10T02:17:05;100863.25;;;8.56;71.05
11223;BME280;5668;52.012;8.724;2023-04-10T02:19:32;100858.06;;;8.56;71.11
11223;BME280;5668;52.012;8.724;2023-04-10T02:22:00;100855.56;;;8.54;71.38
11223;BME280;5668;52.012;8.724;2023-04-10T02:24:28;100841.84;;;8.52;71.67
11223;BME280;5668;52.012;8.724;2023-04-10T02:26:56;100850.38;;;8.54;72.28
11223;BME280;5668;52.012;8.724;2023-04-10T02:29:23;100849.47;;;8.55;71.97
11223;BME280;5668;52.012;8.724;2023-04-10T02:31:52;100841.69;;;8.55;71.57
11223;BME280;5668;52.012;8.724;2023-04-10T02:34:19;100845.19;;;8.54;71.42
11223;BME280;5668;52.012;8.724;2023-04-10T02:36:46;100834.84;;;8.54;72.37
11223;BME280;5668;52.012;8.724;2023-04-10T02:39:13;100840.03;;;8.54;72.02
11223;BME280;5668;52.012;8.724;2023-04-10T02:41:41;100835.69;;;8.54;72.59
11223;BME280;5668;52.012;8.724;2023-04-10T02:44:08;100829.66;;;8.54;72.11
11223;BME280;5668;52.012;8.724;2023-04-10T02:46:35;100833.16;;;8.53;71.48
11223;BME280;5668;52.012;8.724;2023-04-10T02:49:04;100836.84;;;8.49;72.89
11223;BME280;5668;52.012;8.724;2023-04-10T02:51:34;100838.50;;;8.50;73.20
11223;BME280;5668;52.012;8.724;2023-04-10T02:54:02;100835.91;;;8.50;72.59
11223;BME280;5668;52.012;8.724;2023-04-10T02:56:29;100837.50;;;8.52;72.77
11223;BME280;5668;52.012;8.724;2023-04-10T02:58:56;100835.75;;;8.53;72.80
11223;BME280;5668;52.012;8.724;2023-04-10T03:01:23;100828.88;;;8.52;73.25
11223;BME280;5668;52.012;8.724;2023-04-10T03:03:51;100840.03;;;8.54;73.10
11223;BME280;5668;52.012;8.724;2023-04-10T03:06:20;100837.34;;;8.56;73.53
11223;BME280;5668;52.012;8.724;2023-04-10T03:08:48;100840.78;;;8.56;73.13
11223;BME280;5668;52.012;8.724;2023-04-10T03:11:16;100831.34;;;8.55;73.71
11223;BME280;5668;52.012;8.724;2023-04-10T03:13:43;100834.66;;;8.57;74.30
11223;BME280;5668;52.012;8.724;2023-04-10T03:16:10;100826.16;;;8.55;74.84
11223;BME280;5668;52.012;8.724;2023-04-10T03:18:38;100820.13;;;8.54;74.06
11223;BME280;5668;52.012;8.724;2023-04-10T03:21:05;100824.28;;;8.57;74.89
11223;BME280;5668;52.012;8.724;2023-04-10T03:23:34;100822.53;;;8.58;74.42
11223;BME280;5668;52.012;8.724;2023-04-10T03:26:01;100826.06;;;8.57;75.14
11223;BME280;5668;52.012;8.724;2023-04-10T03:28:29;100824.28;;;8.57;74.89
11223;BME280;5668;52.012;8.724;2023-04-10T03:30:57;100819.13;;;8.57;75.14
11223;BME280;5668;52.012;8.724;2023-04-10T03:33:25;100815.59;;;8.58;74.85
11223;BME280;5668;52.012;8.724;2023-04-10T03:35:52;100814.78;;;8.58;75.00
11223;BME280;5668;52.012;8.724;2023-04-10T03:38:19;100813.13;;;8.57;74.07
11223;BME280;5668;52.012;8.724;2023-04-10T03:40:48;100810.44;;;8.58;74.22
11223;BME280;5668;52.012;8.724;2023-04-10T03:43:15;100810.44;;;8.58;74.50
11223;BME280;5668;52.012;8.724;2023-04-10T03:45:42;100804.41;;;8.58;74.79
11223;BME280;5668;52.012;8.724;2023-04-10T03:48:10;100808.75;;;8.57;74.69
11223;BME280;5668;52.012;8.724;2023-04-10T03:50:37;100799.22;;;8.58;73.72
11223;BME280;5668;52.012;8.724;2023-04-10T03:53:04;100800.19;;;8.57;74.37
11223;BME280;5668;52.012;8.724;2023-04-10T03:55:31;100795.91;;;8.56;73.61
11223;BME280;5668;52.012;8.724;2023-04-10T03:58:00;100805.44;;;8.55;73.55
11223;BME280;5668;52.012;8.724;2023-04-10T04:00:27;100798.56;;;8.54;73.42
11223;BME280;5668;52.012;8.724;2023-04-10T04:02:54;100797.75;;;8.53;73.67
11223;BME280;5668;52.012;8.724;2023-04-10T04:05:23;100794.22;;;8.54;73.63
11223;BME280;5668;52.012;8.724;2023-04-10T04:07:50;100791.72;;;8.53;74.19
11223;BME280;5668;52.012;8.724;2023-04-10T04:10:18;100795.16;;;8.53;73.72
11223;BME280;5668;52.012;8.724;2023-04-10T04:12:46;100798.56;;;8.54;73.46
11223;BME280;5668;52.012;8.724;2023-04-10T04:15:15;100793.41;;;8.54;74.11
11223;BME280;5668;52.012;8.724;2023-04-10T04:17:43;100796.13;;;8.51;72.99
11223;BME280;5668;52.012;8.724;2023-04-10T04:20:12;100792.88;;;8.47;73.82
11223;BME280;5668;52.012;8.724;2023-04-10T04:22:40;100798.41;;;8.41;74.17
11223;BME280;5668;52.012;8.724;2023-04-10T04:25:08;100793.28;;;8.40;74.16
11223;BME280;5668;52.012;8.724;2023-04-10T04:27:36;100800.22;;;8.39;74.51
11223;BME280;5668;52.012;8.724;2023-04-10T04:30:04;100801.06;;;8.40;74.35
11223;BME280;5668;52.012;8.724;2023-04-10T04:32:33;100801.97;;;8.39;74.48
11223;BME280;5668;52.012;8.724;2023-04-10T04:35:00;100794.47;;;8.34;74.75
11223;BME280;5668;52.012;8.724;2023-04-10T04:37:28;100798.81;;;8.34;75.06
11223;BME280;5668;52.012;8.724;2023-04-10T04:39:55;100800.38;;;8.36;75.21
11223;BME280;5668;52.012;8.724;2023-04-10T04:42:22;100797.72;;;8.38;75.28
11223;BME280;5668;52.012;8.724;2023-04-10T04:44:49;100801.06;;;8.40;74.82
11223;BME280;5668;52.012;8.724;2023-04-10T04:47:17;100805.41;;;8.39;75.20
11223;BME280;5668;52.012;8.724;2023-04-10T04:49:45;100808.06;;;8.38;75.29
11223;BME280;5668;52.012;8.724;2023-04-10T04:52:12;100808.06;;;8.38;75.65
11223;BME280;5668;52.012;8.724;2023-04-10T04:54:40;100801.97;;;8.39;74.88
11223;BME280;5668;52.012;8.724;2023-04-10T04:57:07;100814.94;;;8.39;75.27
11223;BME280;5668;52.012;8.724;2023-04-10T04:59:34;100803.66;;;8.40;74.26
11223;BME280;5668;52.012;8.724;2023-04-10T05:02:03;100813.09;;;8.41;74.79
11223;BME280;5668;52.012;8.724;2023-04-10T05:04:30;100808.84;;;8.40;74.34
11223;BME280;5668;52.012;8.724;2023-04-10T05:06:58;100808.66;;;8.43;74.56
11223;BME280;5668;52.012;8.724;2023-04-10T05:09:26;100813.09;;;8.41;74.32
11223;BME280;5668;52.012;8.724;2023-04-10T05:11:53;100808.91;;;8.38;73.97
11223;BME280;5668;52.012;8.724;2023-04-10T05:14:21;100810.91;;;8.33;73.92
11223;BME280;5668;52.012;8.724;2023-04-10T05:16:48;100818.69;;;8.33;74.75
11223;BME280;5668;52.012;8.724;2023-04-10T05:19:15;100814.34;;;8.34;74.29
11223;BME280;5668;52.012;8.724;2023-04-10T05:21:42;100811.75;;;8.34;74.34
11223;BME280;5668;52.012;8.724;2023-04-10T05:24:11;100799.53;;;8.36;74.15
11223;BME280;5668;52.012;8.724;2023-04-10T05:26:38;100804.72;;;8.36;74.56
11223;BME280;5668;52.012;8.724;2023-04-10T05:29:06;100805.47;;;8.38;74.85
11223;BME280;5668;52.012;8.724;2023-04-10T05:31:33;100819.28;;;8.38;74.64
11223;BME280;5668;52.012;8.724;2023-04-10T05:34:01;100822.63;;;8.40;74.35
11223;BME280;5668;52.012;8.724;2023-04-10T05:36:28;100813.09;;;8.41;75.17
11223;BME280;5668;52.012;8.724;2023-04-10T05:38:56;100812.84;;;8.45;75.35
11223;BME280;5668;52.012;8.724;2023-04-10T05:41:25;100814.59;;;8.45;75.15
11223;BME280;5668;52.012;8.724;2023-04-10T05:43:52;100816.28;;;8.46;74.63
11223;BME280;5668;52.012;8.724;2023-04-10T05:46:19;100815.38;;;8.47;75.30
11223;BME280;5668;52.012;8.724;2023-04-10T05:48:47;100814.44;;;8.48;75.91
11223;BME280;5668;52.012;8.724;2023-04-10T05:51:14;100803.97;;;8.49;75.31
11223;BME280;5668;52.012;8.724;2023-04-10T05:53:41;100801.25;;;8.52;75.61
11223;BME280;5668;52.012;8.724;2023-04-10T05:56:08;100804.59;;;8.54;76.19
11223;BME280;5668;52.012;8.724;2023-04-10T05:58:37;100794.22;;;8.54;76.19
11223;BME280;5668;52.012;8.724;2023-04-10T06:01:05;100789.63;;;8.60;76.96
11223;BME280;5668;52.012;8.724;2023-04-10T06:03:32;100791.22;;;8.62;78.15
11223;BME280;5668;52.012;8.724;2023-04-10T06:06:00;100792.72;;;8.66;77.50
11223;BME280;5668;52.012;8.724;2023-04-10T06:08:28;100786.47;;;8.70;78.72
11223;BME280;5668;52.012;8.724;2023-04-10T06:10:55;100786.22;;;8.75;79.17
11223;BME280;5668;52.012;8.724;2023-04-10T06:13:22;100785.88;;;8.81;79.50
11223;BME280;5668;52.012;8.724;2023-04-10T06:15:51;100783.03;;;8.85;79.35
11223;BME280;5668;52.012;8.724;2023-04-10T06:18:18;100771.41;;;8.92;79.22
11223;BME280;5668;52.012;8.724;2023-04-10T06:20:46;100774.66;;;8.96;79.96
11223;BME280;5668;52.012;8.724;2023-04-10T06:23:13;100771.63;;;9.04;80.64
11223;BME280;5668;52.012;8.724;2023-04-10T06:25:40;100776.31;;;9.13;79.94
11223;BME280;5668;52.012;8.724;2023-04-10T06:28:08;100773.97;;;9.24;80.63
11223;BME280;5668;52.012;8.724;2023-04-10T06:30:35;100766.75;;;9.29;80.48
11223;BME280;5668;52.012;8.724;2023-04-10T06:33:13;100764.53;;;9.37;80.72
11223;BME280;5668;52.012;8.724;2023-04-10T06:35:41;100767.69;;;9.42;81.17
11223;BME280;5668;52.012;8.724;2023-04-10T06:38:08;100766.34;;;9.51;80.24
11223;BME280;5668;52.012;8.724;2023-04-10T06:40:36;100766.81;;;9.57;80.39
11223;BME280;5668;52.012;8.724;2023-04-10T06:43:03;100759.59;;;9.62;79.71
11223;BME280;5668;52.012;8.724;2023-04-10T06:45:30;100749.69;;;9.69;79.51
11223;BME280;5668;52.012;8.724;2023-04-10T06:47:57;100764.06;;;9.75;79.67
11223;BME280;5668;52.012;8.724;2023-04-10T06:50:26;100765.38;;;9.82;79.48
11223;BME280;5668;52.012;8.724;2023-04-10T06:52:53;100758.22;;;9.85;79.15
11223;BME280;5668;52.012;8.724;2023-04-10T06:55:21;100754.44;;;9.91;78.82
11223;BME280;5668;52.012;8.724;2023-04-10T06:57:48;100751.41;;;9.98;78.47
11223;BME280;5668;52.012;8.724;2023-04-10T07:00:17;100760.56;;;10.04;78.26
11223;BME280;5668;52.012;8.724;2023-04-10T07:02:44;100763.00;;;10.07;78.14
11223;BME280;5668;52.012;8.724;2023-04-10T07:05:12;100758.97;;;10.16;78.20
11223;BME280;5668;52.012;8.724;2023-04-10T07:07:40;100754.31;;;10.22;77.99
11223;BME280;5668;52.012;8.724;2023-04-10T07:10:10;100745.19;;;10.29;77.68
11223;BME280;5668;52.012;8.724;2023-04-10T07:12:38;100749.19;;;10.35;77.13
11223;BME280;5668;52.012;8.724;2023-04-10T07:15:07;100751.84;;;10.47;76.84
11223;BME280;5668;52.012;8.724;2023-04-10T07:17:34;100753.13;;;10.55;76.60
11223;BME280;5668;52.012;8.724;2023-04-10T07:20:01;100749.94;;;10.64;75.74
11223;BME280;5668;52.012;8.724;2023-04-10T07:22:29;100746.03;;;10.71;75.29
11223;BME280;5668;52.012;8.724;2023-04-10T07:24:58;100754.00;;;10.82;74.96
11223;BME280;5668;52.012;8.724;2023-04-10T07:27:25;100744.66;;;10.92;74.50
11223;BME280;5668;52.012;8.724;2023-04-10T07:29:54;100745.09;;;10.99;74.30
11223;BME280;5668;52.012;8.724;2023-04-10T07:32:21;100745.16;;;11.11;74.16
11223;BME280;5668;52.012;8.724;2023-04-10T07:34:49;100742.88;;;11.19;73.90
11223;BME280;5668;52.012;8.724;2023-04-10T07:37:16;100743.09;;;11.29;73.57
11223;BME280;5668;52.012;8.724;2023-04-10T07:39:43;100736.97;;;11.43;73.27
11223;BME280;5668;52.012;8.724;2023-04-10T07:42:12;100735.25;;;11.56;72.44
11223;BME280;5668;52.012;8.724;2023-04-10T07:44:39;100733.66;;;11.66;72.12
11223;BME280;5668;52.012;8.724;2023-04-10T07:47:06;100732.88;;;11.78;72.04
11223;BME280;5668;52.012;8.724;2023-04-10T07:49:34;100727.56;;;11.92;70.78
11223;BME280;5668;52.012;8.724;2023-04-10T07:52:01;100722.56;;;12.02;70.64
11223;BME280;5668;52.012;8.724;2023-04-10T07:54:31;100726.06;;;12.14;70.32
11223;BME280;5668;52.012;8.724;2023-04-10T07:56:59;100726.03;;;12.26;69.95
11223;BME280;5668;52.012;8.724;2023-04-10T07:59:28;100716.66;;;12.36;69.86
11223;BME280;5668;52.012;8.724;2023-04-10T08:01:55;100709.50;;;12.51;65.53
11223;BME280;5668;52.012;8.724;2023-04-10T08:04:25;100704.50;;;12.72;60.64
11223;BME280;5668;52.012;8.724;2023-04-10T08:06:52;100695.47;;;12.89;59.20
11223;BME280;5668;52.012;8.724;2023-04-10T08:09:19;100688.06;;;13.06;57.87
11223;BME280;5668;52.012;8.724;2023-04-10T08:11:47;100683.53;;;13.21;57.69
11223;BME280;5668;52.012;8.724;2023-04-10T08:14:14;100684.47;;;13.31;57.31
11223;BME280;5668;52.012;8.724;2023-04-10T08:16:43;100686.19;;;13.43;56.99
11223;BME280;5668;52.012;8.724;2023-04-10T08:19:11;100681.09;;;13.53;56.48
11223;BME280;5668;52.012;8.724;2023-04-10T08:21:40;100673.25;;;13.64;55.83
11223;BME280;5668;52.012;8.724;2023-04-10T08:24:10;100663.63;;;13.76;55.98
11223;BME280;5668;52.012;8.724;2023-04-10T08:26:37;100655.81;;;13.87;52.90
11223;BME280;5668;52.012;8.724;2023-04-10T08:29:04;100649.16;;;13.94;52.52
11223;BME280;5668;52.012;8.724;2023-04-10T08:31:32;100644.16;;;14.02;53.47
11223;BME280;5668;52.012;8.724;2023-04-10T08:34:01;100653.19;;;14.09;52.44
11223;BME280;5668;52.012;8.724;2023-04-10T08:36:29;100645.56;;;14.17;51.55
11223;BME280;5668;52.012;8.724;2023-04-10T08:38:57;100643.06;;;14.27;51.61
11223;BME280;5668;52.012;8.724;2023-04-10T08:41:24;100648.13;;;14.28;50.22
11223;BME280;5668;52.012;8.724;2023-04-10T08:43:52;100645.66;;;14.38;51.07
11223;BME280;5668;52.012;8.724;2023-04-10T08:46:19;100634.84;;;14.43;50.57
11223;BME280;5668;52.012;8.724;2023-04-10T08:48:54;100636.56;;;14.53;50.73
11223;BME280;5668;52.012;8.724;2023-04-10T08:51:29;100638.91;;;14.67;52.04
11223;BME280;5668;52.012;8.724;2023-04-10T08:54:03;100634.13;;;14.73;50.96
11223;BME280;5668;52.012;8.724;2023-04-10T08:56:32;100633.34;;;14.82;49.97
11223;BME280;5668;52.012;8.724;2023-04-10T08:59:01;100637.41;;;14.86;49.91
11223;BME280;5668;52.012;8.724;2023-04-10T09:01:28;100631.25;;;14.96;50.17
11223;BME280;5668;52.012;8.724;2023-04-10T09:03:57;100625.53;;;15.02;49.57
11223;BME280;5668;52.012;8.724;2023-04-10T09:06:26;100620.50;;;15.10;49.82
11223;BME280;5668;52.012;8.724;2023-04-10T09:08:53;100614.88;;;15.15;49.13
11223;BME280;5668;52.012;8.724;2023-04-10T09:11:20;100627.06;;;15.26;49.42
11223;BME280;5668;52.012;8.724;2023-04-10T09:13:48;100614.41;;;15.31;49.27
11223;BME280;5668;52.012;8.724;2023-04-10T09:16:16;100604.22;;;15.37;49.05
11223;BME280;5668;52.012;8.724;2023-04-10T09:18:45;100595.41;;;15.38;48.33
11223;BME280;5668;52.012;8.724;2023-04-10T09:21:15;100595.72;;;15.45;47.88
11223;BME280;5668;52.012;8.724;2023-04-10T09:23:44;100593.22;;;15.43;47.39
11223;BME280;5668;52.012;8.724;2023-04-10T09:26:23;100596.78;;;15.42;47.58
11223;BME280;5668;52.012;8.724;2023-04-10T09:28:57;100585.81;;;15.48;47.94
11223;BME280;5668;52.012;8.724;2023-04-10T09:31:30;100590.16;;;15.59;48.52
11223;BME280;5668;52.012;8.724;2023-04-10T09:34:12;100580.50;;;15.60;47.31
11223;BME280;5668;52.012;8.724;2023-04-10T09:36:41;100579.97;;;15.66;47.81
11223;BME280;5668;52.012;8.724;2023-04-10T09:39:11;100567.31;;;15.71;46.78
11223;BME280;5668;52.012;8.724;2023-04-10T09:41:48;100560.56;;;15.78;46.47
11223;BME280;5668;52.012;8.724;2023-04-10T09:44:18;100559.59;;;15.79;46.74
11223;BME280;5668;52.012;8.724;2023-04-10T09:46:54;100555.88;;;15.81;47.01
11223;BME280;5668;52.012;8.724;2023-04-10T09:49:21;100557.28;;;15.95;46.78
11223;BME280;5668;52.012;8.724;2023-04-10T09:51:48;100545.44;;;16.01;46.11
11223;BME280;5668;52.012;8.724;2023-04-10T09:54:17;100537.44;;;16.12;46.68
11223;BME280;5668;52.012;8.724;2023-04-10T09:56:45;100538.53;;;16.19;46.03
11223;BME280;5668;52.012;8.724;2023-04-10T09:59:15;100540.59;;;16.25;46.44
11223;BME280;5668;52.012;8.724;2023-04-10T10:01:44;100525.84;;;16.34;45.13
11223;BME280;5668;52.012;8.724;2023-04-10T10:04:11;100525.69;;;16.35;44.35
11223;BME280;5668;52.012;8.724;2023-04-10T10:06:42;100517.53;;;16.48;44.53
11223;BME280;5668;52.012;8.724;2023-04-10T10:09:09;100520.03;;;16.49;43.34
11223;BME280;5668;52.012;8.724;2023-04-10T10:11:38;100513.13;;;16.48;43.98
11223;BME280;5668;52.012;8.724;2023-04-10T10:14:14;100502.63;;;16.58;43.14
11223;BME280;5668;52.012;8.724;2023-04-10T10:16:47;100497.94;;;16.61;42.71
11223;BME280;5668;52.012;8.724;2023-04-10T10:19:18;100493.09;;;16.67;41.98
11223;BME280;5668;52.012;8.724;2023-04-10T10:21:50;100500.41;;;16.73;41.85
11223;BME280;5668;52.012;8.724;2023-04-10T10:24:20;100479.91;;;16.86;42.47
11223;BME280;5668;52.012;8.724;2023-04-10T10:26:54;100472.16;;;16.94;41.60
11223;BME280;5668;52.012;8.724;2023-04-10T10:29:23;100472.28;;;16.92;41.10
11223;BME280;5668;52.012;8.724;2023-04-10T10:31:52;100464.72;;;16.89;40.85
11223;BME280;5668;52.012;8.724;2023-04-10T10:34:20;100462.03;;;16.99;42.18
11223;BME280;5668;52.012;8.724;2023-04-10T10:36:47;100457.44;;;17.11;42.49
11223;BME280;5668;52.012;8.724;2023-04-10T10:39:25;100455.75;;;17.19;41.59
11223;BME280;5668;52.012;8.724;2023-04-10T10:41:59;100457.91;;;17.24;42.09
11223;BME280;5668;52.012;8.724;2023-04-10T10:44:35;100447.03;;;17.19;40.73
11223;BME280;5668;52.012;8.724;2023-04-10T10:47:13;100443.00;;;17.24;41.55
11223;BME280;5668;52.012;8.724;2023-04-10T10:49:54;100445.63;;;17.24;41.40
11223;BME280;5668;52.012;8.724;2023-04-10T10:52:38;100438.59;;;17.15;40.54
11223;BME280;5668;52.012;8.724;2023-04-10T10:55:28;100437.41;;;17.10;40.36
11223;BME280;5668;52.012;8.724;2023-04-10T10:57:59;100432.59;;;17.05;40.27
11223;BME280;5668;52.012;8.724;2023-04-10T11:01:03;100433.13;;;17.09;40.75
11223;BME280;5668;52.012;8.724;2023-04-10T11:03:31;100418.72;;;17.13;41.93
11223;BME280;5668;52.012;8.724;2023-04-10T11:06:00;100419.13;;;17.18;40.78
11223;BME280;5668;52.012;8.724;2023-04-10T11:08:42;100417.78;;;17.31;41.58
11223;BME280;5668;52.012;8.724;2023-04-10T11:11:16;100409.72;;;17.42;41.61
11223;BME280;5668;52.012;8.724;2023-04-10T11:14:12;100398.72;;;17.47;41.15
11223;BME280;5668;52.012;8.724;2023-04-10T11:16:46;100404.53;;;17.51;41.21
11223;BME280;5668;52.012;8.724;2023-04-10T11:19:15;100393.94;;;17.60;41.05
11223;BME280;5668;52.012;8.724;2023-04-10T11:22:01;100386.28;;;17.67;42.04
11223;BME280;5668;52.012;8.724;2023-04-10T11:24:29;100376.84;;;17.74;42.37
11223;BME280;5668;52.012;8.724;2023-04-10T11:27:44;100368.34;;;17.80;40.79
11223;BME280;5668;52.012;8.724;2023-04-10T11:30:40;100365.19;;;17.76;40.33
11223;BME280;5668;52.012;8.724;2023-04-10T11:33:07;100359.31;;;17.83;41.08
11223;BME280;5668;52.012;8.724;2023-04-10T11:35:36;100344.06;;;17.86;41.12
11223;BME280;5668;52.012;8.724;2023-04-10T11:38:15;100346.72;;;17.86;40.53
11223;BME280;5668;52.012;8.724;2023-04-10T11:40:59;100328.91;;;17.80;40.36
11223;BME280;5668;52.012;8.724;2023-04-10T11:43:27;100328.38;;;17.76;40.50
11223;BME280;5668;52.012;8.724;2023-04-10T11:46:03;100335.09;;;17.71;39.96
11223;BME280;5668;52.012;8.724;2023-04-10T11:48:31;100328.72;;;17.73;40.32
11223;BME280;5668;52.012;8.724;2023-04-10T11:51:06;100329.34;;;17.75;41.08
11223;BME280;5668;52.012;8.724;2023-04-10T11:53:34;100322.31;;;17.76;41.47
11223;BME280;5668;52.012;8.724;2023-04-10T11:56:01;100314.19;;;17.69;40.65
11223;BME280;5668;52.012;8.724;2023-04-10T11:58:29;100318.00;;;17.75;41.52
11223;BME280;5668;52.012;8.724;2023-04-10T12:00:58;100314.47;;;17.84;41.90
11223;BME280;5668;52.012;8.724;2023-04-10T12:03:33;100316.34;;;17.92;40.53
11223;BME280;5668;52.012;8.724;2023-04-10T12:06:03;100309.22;;;17.84;40.69
11223;BME280;5668;52.012;8.724;2023-04-10T12:08:33;100309.06;;;17.86;40.28
11223;BME280;5668;52.012;8.724;2023-04-10T12:11:01;100307.28;;;17.86;40.75
11223;BME280;5668;52.012;8.724;2023-04-10T12:13:29;100304.78;;;17.85;40.74
11223;BME280;5668;52.012;8.724;2023-04-10T12:15:58;100295.91;;;17.86;41.08
11223;BME280;5668;52.012;8.724;2023-04-10T12:18:27;100291.84;;;17.91;41.41
11223;BME280;5668;52.012;8.724;2023-04-10T12:20:54;100284.69;;;18.01;42.02
11223;BME280;5668;52.012;8.724;2023-04-10T12:23:24;100288.13;;;18.02;41.61
11223;BME280;5668;52.012;8.724;2023-04-10T12:25:52;100284.69;;;18.01;40.23
11223;BME280;5668;52.012;8.724;2023-04-10T12:28:20;100279.38;;;17.93;39.73
11223;BME280;5668;52.012;8.724;2023-04-10T12:30:48;100282.81;;;17.94;39.96
11223;BME280;5668;52.012;8.724;2023-04-10T12:33:21;100281.69;;;17.96;40.61
11223;BME280;5668;52.012;8.724;2023-04-10T12:35:49;100261.00;;;18.01;40.09
11223;BME280;5668;52.012;8.724;2023-04-10T12:38:38;100264.81;;;18.07;41.13
11223;BME280;5668;52.012;8.724;2023-04-10T12:41:06;100256.97;;;18.15;40.60
11223;BME280;5668;52.012;8.724;2023-04-10T12:43:35;100254.88;;;18.18;40.63
11223;BME280;5668;52.012;8.724;2023-04-10T12:46:03;100253.84;;;18.19;41.42
11223;BME280;5668;52.012;8.724;2023-04-10T12:48:31;100245.50;;;18.24;40.94
11223;BME280;5668;52.012;8.724;2023-04-10T12:50:59;100250.81;;;18.32;41.16
11223;BME280;5668;52.012;8.724;2023-04-10T12:53:27;100249.97;;;18.32;40.03
11223;BME280;5668;52.012;8.724;2023-04-10T12:56:00;100234.03;;;18.33;40.18
11223;BME280;5668;52.012;8.724;2023-04-10T12:58:28;100225.44;;;18.23;39.32
11223;BME280;5668;52.012;8.724;2023-04-10T13:00:57;100221.84;;;18.24;40.56
11223;BME280;5668;52.012;8.724;2023-04-10T13:03:24;100214.44;;;18.28;39.67
11223;BME280;5668;52.012;8.724;2023-04-10T13:05:52;100212.16;;;18.33;39.75
11223;BME280;5668;52.012;8.724;2023-04-10T13:08:19;100193.75;;;18.33;38.85
11223;BME280;5668;52.012;8.724;2023-04-10T13:10:47;100192.59;;;18.35;39.15
11223;BME280;5668;52.012;8.724;2023-04-10T13:13:16;100189.66;;;18.38;39.81
11223;BME280;5668;52.012;8.724;2023-04-10T13:15:44;100183.56;;;18.46;40.70
11223;BME280;5668;52.012;8.724;2023-04-10T13:18:11;100184.72;;;18.51;40.47